createdAt,value
2022-08-09T00:00:21.562Z,5.15
2022-08-09T00:02:51.665Z,6.53
2022-08-09T00:06:19.655Z,6.57
2022-08-09T00:08:11.102Z,6.85
2022-08-09T00:10:40.582Z,8.50
2022-08-09T00:13:17.005Z,6.28
2022-08-09T00:15:59.111Z,6.20
2022-08-09T00:18:30.004Z,5.57
2022-08-09T00:20:58.809Z,7.60
2022-08-09T00:23:55.641Z,6.28
2022-08-09T00:26:14.496Z,6.03
2022-08-09T00:28:41.562Z,7.90
2022-08-09T00:31:57.615Z,6.80
2022-08-09T00:34:08.704Z,7.13
2022-08-09T00:36:37.805Z,7.95
2022-08-09T00:39:06.948Z,7.05
2022-08-09T00:44:14.580Z,9.07
2022-08-09T00:44:31.819Z,8.43
2022-08-09T00:47:04.718Z,6.25
2022-08-09T00:49:36.780Z,14.60
2022-08-09T00:52:15.977Z,7.95
2022-08-09T00:54:45.514Z,8.55
2022-08-09T00:57:14.106Z,8.25
2022-08-09T01:00:05.197Z,13.73
2022-08-09T01:02:50.191Z,9.88
2022-08-09T01:05:51.428Z,6.57
2022-08-09T01:13:53.238Z,10.63
2022-08-09T01:16:26.345Z,11.30
2022-08-09T01:19:04.569Z,6.55
2022-08-09T01:22:07.000Z,8.30
2022-08-09T01:25:05.264Z,9.18
2022-08-09T01:27:37.178Z,9.98
2022-08-09T01:30:08.294Z,9.88
2022-08-09T01:32:57.557Z,8.63
2022-08-09T01:35:38.507Z,8.80
2022-08-09T01:38:14.755Z,11.68
2022-08-09T01:40:52.892Z,10.85
2022-08-09T01:43:41.811Z,8.70
2022-08-09T01:46:26.835Z,9.30
2022-08-09T01:49:00.254Z,9.30
2022-08-09T01:51:53.961Z,8.88
2022-08-09T01:54:33.251Z,8.73
2022-08-09T01:57:06.525Z,7.43
2022-08-09T01:59:50.928Z,7.25
2022-08-09T02:02:30.111Z,9.77
2022-08-09T02:05:11.857Z,9.23
2022-08-09T02:08:39.345Z,8.20
2022-08-09T02:10:51.202Z,7.68
2022-08-09T02:13:25.940Z,8.77
2022-08-09T02:16:04.811Z,7.03
2022-08-09T02:18:33.833Z,10.15
2022-08-09T02:21:10.343Z,8.60
2022-08-09T02:23:52.480Z,10.35
2022-08-09T02:26:24.841Z,8.30
2022-08-09T02:28:57.921Z,9.85
2022-08-09T02:31:35.431Z,9.25
2022-08-09T02:34:13.768Z,7.40
2022-08-09T02:37:01.414Z,10.07
2022-08-09T02:39:41.811Z,8.68
2022-08-09T02:42:16.660Z,9.23
2022-08-09T02:44:50.556Z,6.07
2022-08-09T02:47:21.175Z,7.55
2022-08-09T02:50:01.657Z,9.88
2022-08-09T02:52:40.861Z,7.28
2022-08-09T02:55:20.214Z,8.93
2022-08-09T02:58:00.476Z,8.55
2022-08-09T03:00:58.139Z,8.02
2022-08-09T03:04:12.613Z,9.10
2022-08-09T03:06:15.409Z,10.38
2022-08-09T03:08:45.589Z,7.93
2022-08-09T03:12:05.310Z,9.50
2022-08-09T03:14:06.772Z,9.13
2022-08-09T03:16:37.360Z,8.57
2022-08-09T03:19:08.959Z,7.63
2022-08-09T03:21:44.491Z,10.55
2022-08-09T03:24:31.610Z,8.70
2022-08-09T03:27:11.926Z,10.45
2022-08-09T03:29:57.382Z,7.80
2022-08-09T03:32:32.124Z,8.65
2022-08-09T03:35:00.283Z,8.32
2022-08-09T03:37:55.916Z,8.23
2022-08-09T03:40:18.200Z,8.65
2022-08-09T03:42:46.623Z,9.13
2022-08-09T03:45:15.503Z,8.15
2022-08-09T03:47:46.673Z,7.75
2022-08-09T03:50:18.860Z,9.57
2022-08-09T03:52:57.965Z,8.55
2022-08-09T03:55:27.169Z,9.48
2022-08-09T03:58:09.879Z,7.68
2022-08-09T04:00:45.456Z,8.23
2022-08-09T04:03:25.002Z,9.95
2022-08-09T04:06:00.191Z,12.57
2022-08-09T04:08:31.712Z,8.38
2022-08-09T04:11:00.480Z,6.78
2022-08-09T04:14:36.780Z,6.68
2022-08-09T04:16:19.538Z,5.90
2022-08-09T04:18:48.107Z,8.40
2022-08-09T04:21:18.216Z,12.18
2022-08-09T04:23:53.874Z,8.77
2022-08-09T04:26:23.179Z,6.93
2022-08-09T04:28:50.599Z,7.00
2022-08-09T04:31:17.427Z,7.90
2022-08-09T04:33:47.299Z,6.47
2022-08-09T04:36:25.090Z,7.38
2022-08-09T04:38:53.648Z,7.40
2022-08-09T04:41:23.756Z,7.18
2022-08-09T04:44:04.873Z,7.00
2022-08-09T04:46:57.715Z,6.72
2022-08-09T04:49:30.192Z,7.63
2022-08-09T04:52:07.400Z,5.90
2022-08-09T04:54:36.762Z,6.70
2022-08-09T07:17:25.827Z,2.65
2022-08-09T07:20:09.480Z,5.43
2022-08-09T07:22:42.195Z,11.57
2022-08-09T07:25:13.488Z,4.95
2022-08-09T07:27:53.614Z,5.38
2022-08-09T07:30:25.302Z,2.97
2022-08-09T07:32:52.696Z,5.82
2022-08-09T07:35:19.693Z,4.47
2022-08-09T07:37:48.093Z,4.03
2022-08-09T07:40:20.527Z,5.05
2022-08-09T07:42:56.323Z,2.92
2022-08-09T07:45:39.257Z,4.25
2022-08-09T07:48:28.634Z,2.45
2022-08-09T07:51:09.657Z,4.50
2022-08-09T07:54:07.781Z,5.38
2022-08-09T07:56:38.892Z,2.92
2022-08-09T07:59:25.745Z,3.40
2022-08-09T08:02:04.946Z,4.32
2022-08-09T08:04:33.210Z,3.58
2022-08-09T08:07:09.627Z,4.70
2022-08-09T08:10:07.584Z,3.78
2022-08-09T08:12:43.384Z,2.40
2022-08-09T08:15:24.127Z,10.93
2022-08-09T08:17:58.009Z,2.13
2022-08-09T08:20:30.389Z,3.55
2022-08-09T08:23:16.435Z,1.98
2022-08-09T08:25:46.159Z,7.20
2022-08-09T08:28:46.253Z,4.13
2022-08-09T08:32:02.204Z,5.75
2022-08-09T08:34:33.726Z,2.28
2022-08-09T08:37:11.458Z,1.23
2022-08-09T08:39:56.803Z,2.38
2022-08-09T08:50:58.699Z,2.20
2022-08-09T08:53:30.002Z,4.45
2022-08-09T08:56:05.446Z,5.03
2022-08-09T08:58:35.919Z,1.70
2022-08-09T09:01:08.712Z,3.00
2022-08-09T09:03:49.426Z,2.53
2022-08-09T09:06:19.594Z,3.30
2022-08-09T09:08:52.448Z,8.07
2022-08-09T09:11:36.032Z,4.15
2022-08-09T09:14:32.258Z,2.00
2022-08-09T09:17:00.973Z,2.75
2022-08-09T09:19:40.763Z,6.55
2022-08-09T09:22:13.856Z,3.80
2022-08-09T09:24:43.325Z,3.15
2022-08-09T09:28:02.998Z,2.88
2022-08-09T09:33:15.683Z,4.82
2022-08-09T09:36:00.847Z,2.92
2022-08-09T09:38:50.135Z,3.13
2022-08-09T09:41:23.024Z,6.25
2022-08-09T09:44:12.148Z,2.10
2022-08-09T09:46:42.134Z,1.05
2022-08-09T09:49:18.661Z,0.50
2022-08-09T09:52:05.633Z,3.03
2022-08-09T09:54:55.782Z,1.70
2022-08-09T09:58:02.645Z,1.50
2022-08-09T10:00:26.884Z,3.42
2022-08-09T10:02:53.977Z,1.38
2022-08-09T10:05:26.987Z,4.03
2022-08-09T10:08:27.892Z,1.75
2022-08-09T10:10:55.717Z,1.08
2022-08-09T10:13:23.218Z,2.63
2022-08-09T10:16:56.563Z,1.80
2022-08-09T10:18:59.969Z,4.95
2022-08-09T10:21:27.987Z,1.38
2022-08-09T10:23:56.982Z,1.38
2022-08-09T10:26:26.859Z,4.38
2022-08-09T10:29:20.984Z,1.60
2022-08-09T10:34:33.186Z,1.85
2022-08-09T10:37:01.821Z,4.30
2022-08-09T10:39:30.042Z,2.83
2022-08-09T10:42:08.167Z,3.45
2022-08-09T14:16:18.674Z,0.47
2022-08-09T14:18:50.287Z,1.58
2022-08-09T14:21:20.720Z,2.72
2022-08-09T14:23:55.201Z,0.20
2022-08-09T14:26:31.710Z,2.35
2022-08-09T14:29:01.277Z,2.55
2022-08-09T14:31:36.277Z,1.10
2022-08-09T14:37:08.115Z,1.90
2022-08-09T14:39:47.113Z,1.40
2022-08-09T14:42:28.900Z,0.90
2022-08-09T14:45:00.062Z,0.60
2022-08-09T14:47:45.303Z,3.28
2022-08-09T14:50:16.118Z,3.15
2022-08-09T14:52:43.409Z,2.28
2022-08-09T14:55:20.325Z,0.25
2022-08-09T14:57:48.795Z,0.50
2022-08-09T15:00:16.616Z,1.02
2022-08-09T15:02:47.783Z,1.42
2022-08-09T15:05:18.820Z,1.95
2022-08-09T15:07:56.641Z,0.85
2022-08-09T15:10:25.537Z,0.88
2022-08-09T15:12:56.980Z,2.50
2022-08-09T15:15:28.483Z,1.92
2022-08-09T15:17:56.344Z,1.50
2022-08-09T15:21:57.003Z,4.50
2022-08-09T15:24:00.873Z,1.42
2022-08-09T15:25:58.696Z,0.50
2022-08-09T15:28:28.321Z,0.85
2022-08-09T15:31:08.740Z,0.98
2022-08-09T15:34:33.150Z,1.17
2022-08-09T15:36:28.765Z,2.42
2022-08-09T15:39:00.201Z,0.88
2022-08-09T15:41:31.672Z,0.70
2022-08-09T15:46:33.268Z,2.35
2022-08-09T15:49:22.501Z,4.80
2022-08-09T15:52:04.602Z,0.70
2022-08-09T15:54:49.053Z,0.75
2022-08-09T15:57:35.532Z,1.02
2022-08-09T16:00:29.338Z,0.93
2022-08-09T16:02:58.238Z,1.33
2022-08-09T16:05:47.588Z,0.68
2022-08-09T16:08:29.969Z,2.90
2022-08-09T16:10:59.849Z,2.42
2022-08-09T16:14:02.582Z,2.08
2022-08-09T16:16:17.512Z,1.13
2022-08-09T16:18:45.718Z,1.15
2022-08-09T16:21:17.587Z,3.72
2022-08-09T16:23:58.911Z,4.40
2022-08-09T16:26:35.126Z,0.70
2022-08-09T16:29:11.852Z,1.85
2022-08-09T16:32:18.561Z,1.15
2022-08-09T16:34:28.828Z,1.35
2022-08-09T16:36:56.682Z,2.33
2022-08-09T16:39:25.917Z,2.78
2022-08-09T16:42:04.023Z,0.85
2022-08-09T16:44:32.377Z,0.70
2022-08-09T16:47:01.969Z,3.22
2022-08-09T16:50:29.687Z,1.77
2022-08-09T16:52:18.221Z,1.58
2022-08-09T16:54:46.127Z,2.05
2022-08-09T16:57:14.624Z,2.85
2022-08-09T16:59:43.857Z,0.73
2022-08-09T17:02:17.616Z,1.85
2022-08-09T17:04:45.819Z,1.58
2022-08-09T17:08:43.949Z,1.00
2022-08-09T17:10:02.196Z,1.55
2022-08-09T17:12:31.296Z,0.80
2022-08-09T17:14:58.550Z,6.18
2022-08-09T17:17:27.128Z,0.80
2022-08-09T17:20:33.218Z,1.75
2022-08-09T17:22:50.110Z,0.30
2022-08-09T17:25:19.741Z,6.53
2022-08-09T17:27:49.079Z,3.50
2022-08-09T17:30:22.192Z,1.02
2022-08-09T17:32:53.319Z,0.52
2022-08-09T17:35:20.205Z,0.82
2022-08-09T17:38:02.361Z,2.20
2022-08-09T17:40:36.623Z,0.95
2022-08-09T17:43:33.054Z,1.42
2022-08-09T17:46:03.904Z,0.50
2022-08-09T17:48:38.591Z,0.90
2022-08-09T17:51:18.603Z,2.50
2022-08-09T17:53:52.376Z,4.07
2022-08-09T17:56:27.604Z,0.50
2022-08-09T17:58:56.990Z,2.10
2022-08-09T18:01:24.219Z,2.58
2022-08-09T18:03:54.335Z,1.17
2022-08-09T18:06:31.886Z,0.90
2022-08-09T18:09:05.511Z,1.98
2022-08-09T18:12:05.205Z,2.70
2022-08-09T18:14:22.547Z,2.83
2022-08-09T18:16:50.946Z,1.25
2022-08-09T18:20:54.928Z,1.08
2022-08-09T18:22:13.205Z,1.60
2022-08-09T18:24:44.444Z,0.82
2022-08-09T18:27:18.835Z,4.90
2022-08-09T18:30:42.019Z,1.58
2022-08-09T18:32:54.566Z,4.00
2022-08-09T18:35:58.082Z,3.00
2022-08-09T18:38:11.787Z,1.40
2022-08-09T18:40:45.290Z,0.95
2022-08-09T18:43:12.842Z,3.60
2022-08-09T18:46:47.971Z,0.40
2022-08-09T18:48:32.785Z,1.17
2022-08-09T18:51:00.868Z,0.52
2022-08-09T18:53:56.223Z,0.88
2022-08-09T18:56:16.673Z,2.20
2022-08-09T18:58:44.613Z,1.55
2022-08-09T19:01:12.072Z,1.35
2022-08-09T19:04:00.925Z,4.75
2022-08-09T19:06:28.954Z,4.47
2022-08-09T19:09:02.910Z,0.93
2022-08-09T19:11:37.914Z,3.40
2022-08-09T19:14:07.012Z,4.85
2022-08-09T19:16:38.046Z,6.65
2022-08-09T19:19:26.179Z,1.02
2022-08-09T19:22:06.204Z,0.85
2022-08-09T19:25:08.998Z,0.77
2022-08-09T19:27:22.298Z,5.03
2022-08-09T19:30:22.307Z,2.63
2022-08-09T19:32:38.634Z,1.45
2022-08-09T19:35:06.162Z,1.42
2022-08-09T19:37:54.467Z,2.05
2022-08-09T19:40:23.487Z,2.05
2022-08-09T19:43:00.315Z,1.58
2022-08-09T19:45:28.115Z,2.25
2022-08-09T19:48:07.718Z,3.10
2022-08-09T19:50:50.717Z,1.75
2022-08-09T19:53:20.943Z,5.95
2022-08-09T19:56:06.311Z,1.58
2022-08-09T19:58:34.397Z,4.32
2022-08-09T20:01:01.588Z,2.15
2022-08-09T20:04:16.841Z,1.75
2022-08-09T20:06:23.641Z,1.08
2022-08-09T20:08:57.634Z,1.52
2022-08-09T20:11:33.734Z,0.98
2022-08-09T20:14:15.248Z,4.15
2022-08-09T20:16:53.800Z,1.00
2022-08-09T20:19:47.880Z,2.63
2022-08-09T20:22:14.324Z,1.88
2022-08-09T20:24:53.882Z,0.95
2022-08-09T20:27:21.668Z,2.40
2022-08-09T20:29:49.046Z,2.30
2022-08-09T20:32:33.454Z,1.75
2022-08-09T20:35:01.512Z,2.17
2022-08-09T20:38:19.386Z,1.10
2022-08-09T20:40:24.762Z,4.00
2022-08-09T20:42:59.824Z,1.23
2022-08-09T20:45:59.104Z,2.35
2022-08-09T20:48:23.556Z,3.45
2022-08-09T20:50:58.322Z,1.75
2022-08-09T20:53:37.652Z,3.22
2022-08-09T20:56:20.494Z,0.98
2022-08-09T20:58:49.493Z,1.48
2022-08-09T21:01:35.094Z,2.03
2022-08-09T21:05:49.604Z,2.88
2022-08-09T21:06:51.117Z,3.13
2022-08-09T21:09:38.135Z,0.82
2022-08-09T21:14:40.638Z,1.85
2022-08-09T21:18:11.181Z,1.45
2022-08-09T21:20:17.938Z,0.85
2022-08-09T21:22:46.822Z,0.70
2022-08-09T21:25:37.938Z,3.40
2022-08-09T21:28:05.842Z,0.77
2022-08-09T21:30:34.800Z,0.98
2022-08-09T21:33:08.060Z,2.45
2022-08-09T21:35:39.486Z,2.13
2022-08-09T21:38:09.429Z,2.35
2022-08-09T21:40:38.068Z,3.08
2022-08-09T21:43:06.252Z,7.07
2022-08-09T21:45:39.162Z,1.75
2022-08-09T21:48:07.347Z,1.17
2022-08-09T21:50:38.725Z,3.80
2022-08-09T21:53:19.981Z,5.00
2022-08-09T21:55:54.820Z,1.52
2022-08-09T21:58:30.965Z,6.82
2022-08-09T22:00:58.259Z,3.47
2022-08-09T22:03:25.750Z,1.58
2022-08-09T22:05:54.143Z,4.20
2022-08-09T22:08:24.537Z,2.20
2022-08-09T22:11:04.873Z,2.05
2022-08-09T22:13:43.375Z,5.95
2022-08-09T22:16:11.997Z,2.00
2022-08-09T22:18:53.702Z,1.10
2022-08-09T22:21:44.844Z,5.35
2022-08-09T22:24:17.328Z,1.02
2022-08-09T22:26:51.840Z,7.38
2022-08-09T22:29:24.131Z,1.73
2022-08-09T22:31:56.977Z,1.55
2022-08-09T22:34:26.200Z,1.65
2022-08-09T22:36:55.163Z,1.80
2022-08-09T22:39:58.238Z,1.75
2022-08-09T22:42:21.292Z,1.95
2022-08-09T22:45:00.178Z,3.55
2022-08-09T22:48:11.735Z,2.17
2022-08-09T22:50:27.235Z,1.45
2022-08-09T22:52:54.811Z,2.92
2022-08-09T22:55:39.448Z,1.73
2022-08-09T22:58:30.669Z,2.78
2022-08-09T23:01:00.745Z,1.80
2022-08-09T23:04:02.405Z,2.22
2022-08-09T23:06:34.751Z,4.15
2022-08-09T23:09:07.199Z,1.02
2022-08-09T23:11:34.644Z,3.33
2022-08-09T23:14:03.769Z,3.20
2022-08-09T23:16:31.563Z,2.80
2022-08-09T23:18:58.546Z,1.98
2022-08-09T23:21:30.060Z,3.78
2022-08-09T23:24:05.261Z,3.30
2022-08-09T23:26:37.433Z,2.65
2022-08-09T23:29:06.340Z,2.08
2022-08-09T23:31:34.240Z,4.55
2022-08-09T23:34:03.723Z,1.77
2022-08-09T23:36:31.418Z,2.28
2022-08-09T23:38:58.336Z,3.45
2022-08-09T23:41:28.627Z,3.20
2022-08-09T23:43:57.161Z,2.03
2022-08-09T23:46:23.960Z,4.43
2022-08-09T23:48:50.779Z,3.95
2022-08-09T23:51:17.682Z,6.03
2022-08-09T23:53:44.729Z,3.95
2022-08-09T23:56:14.240Z,2.60
2022-08-09T23:58:41.509Z,5.07
